Ligovsky Prospect — A8AP5 — position and weather

sailwx.info

Track history (hours):
 
Tides and Currents Weather Stations Pressure Air Temp Water Temp Dewpoint Dewpoint Depression Visibility Wind Speed Wind Dir Waves Ship Positions

Ligovsky Prospect

Last reported at 2017-Nov-22 20:17 UTC. Time now 2017-Nov-23 07:45 UTC.
Position N 71°02' E 030°30'.

Length 250 m; draft 9 m.

Type: Ship. MMSI: 636011641.

Date/timePositionNaut miles runAvg speedWind from/ knotsBaromVisibWave heightAir tempDewpointWater temp
2017-Nov-22 20:17N 71°02' E 030°30'310.0
2017-Nov-22 20:01N 71°03' E 030°23'510.2
2017-Nov-22 19:30N 71°06' E 030°10'  
2017-Nov-15 19:29N 52°12' E 003°24'611.4
2017-Nov-15 18:58N 52°09' E 003°32'612.0
2017-Nov-15 18:30N 52°06' E 003°40'612.9
2017-Nov-15 18:01N 52°03' E 003°50'611.0
2017-Nov-15 17:30N 52°01' E 003°58'611.3
2017-Nov-15 17:01N 51°58' E 004°06'4 7.8
2017-Nov-15 16:31N 51°56' E 004°11'1 2.0
2017-Nov-15 15:58N 51°55' E 004°12'0 0.0
2017-Nov-15 15:28N 51°55' E 004°12'0 0.0
2017-Nov-15 14:58N 51°55' E 004°12'0 0.0
2017-Nov-15 14:25N 51°55' E 004°12'0 0.0
2017-Nov-15 13:58N 51°55' E 004°12'0 0.0
2017-Nov-15 13:25N 51°55' E 004°12'0 0.0
2017-Nov-15 12:58N 51°55' E 004°12'0 0.0
2017-Nov-15 12:28N 51°55' E 004°12'0 0.0
2017-Nov-15 11:58N 51°55' E 004°12'0 0.0
2017-Nov-15 11:28N 51°55' E 004°12'0 0.0
2017-Nov-15 10:55N 51°55' E 004°12'0 0.0
2017-Nov-15 10:25N 51°55' E 004°12'0 0.0
2017-Nov-15 09:58N 51°55' E 004°12'0 0.0
2017-Nov-15 09:25N 51°55' E 004°12'0 0.0
2017-Nov-15 08:58N 51°55' E 004°12'0 0.0
2017-Nov-15 08:28N 51°55' E 004°12'0 0.0
2017-Nov-15 07:58N 51°55' E 004°12'0 0.0
2017-Nov-15 07:28N 51°55' E 004°12'0 0.0
2017-Nov-15 06:55N 51°55' E 004°12'0 0.0
2017-Nov-15 06:28N 51°55' E 004°12'0 0.0
2017-Nov-15 05:58N 51°55' E 004°12'0 0.0
2017-Nov-15 05:28N 51°55' E 004°12'0 0.0
2017-Nov-15 04:55N 51°55' E 004°12'0 0.0
2017-Nov-15 04:28N 51°55' E 004°12'0 0.0
2017-Nov-15 03:58N 51°55' E 004°12'0 0.0
2017-Nov-15 03:25N 51°55' E 004°12'0 0.0
2017-Nov-15 02:55N 51°55' E 004°12'0 0.0
2017-Nov-15 02:28N 51°55' E 004°12'0 0.0
2017-Nov-15 01:58N 51°55' E 004°12'0 0.0
2017-Nov-15 01:25N 51°55' E 004°12'0 0.0
2017-Nov-15 00:58N 51°55' E 004°12'0 0.0
2017-Nov-15 00:28N 51°55' E 004°12'0 0.0
2017-Nov-14 23:58N 51°55' E 004°12'0 0.0
2017-Nov-14 23:28N 51°55' E 004°12'0 0.0
2017-Nov-14 22:55N 51°55' E 004°12'0 0.0
2017-Nov-14 22:28N 51°55' E 004°12'0 0.0
2017-Nov-14 21:55N 51°55' E 004°12'0 0.0
2017-Nov-14 21:22N 51°55' E 004°12'0 0.0
2017-Nov-14 20:58N 51°55' E 004°12'0 0.0
2017-Nov-14 20:28N 51°55' E 004°12'0 0.0
2017-Nov-14 19:55N 51°55' E 004°12'0 0.0
2017-Nov-14 19:25N 51°55' E 004°12'0 0.0
2017-Nov-14 18:55N 51°55' E 004°12'0 0.0
2017-Nov-14 18:28N 51°55' E 004°12'0 0.0
2017-Nov-14 17:55N 51°55' E 004°12'0 0.0
2017-Nov-14 17:28N 51°55' E 004°12'0 0.0
2017-Nov-14 17:00N 51°55' E 004°12'0 0.0
2017-Nov-14 16:30N 51°55' E 004°12'1 1.5
2017-Nov-14 16:00N 51°56' E 004°12'2 4.6
2017-Nov-14 15:30N 51°57' E 004°09'3 6.5
2017-Nov-14 15:00N 51°59' E 004°04'510.8
2017-Nov-14 14:30N 52°00' E 003°56'5 9.0
2017-Nov-14 14:00N 52°00' E 003°48'510.1
2017-Nov-14 13:30N 52°03' E 003°41'612.0
2017-Nov-14 13:00N 52°06' E 003°33'  
Track history (hours):
 
Tides and Currents Weather Stations Pressure Air Temp Water Temp Dewpoint Dewpoint Depression Visibility Wind Speed Wind Dir Waves Ship Positions

Ligovsky Prospect

Last reported at 2017-Nov-22 20:17 UTC. Time now 2017-Nov-23 07:45 UTC.
Position N 71°02' E 030°30'.

Length 250 m; draft 9 m.

Type: Ship. MMSI: 636011641.

Date/timePositionNaut miles runAvg speedWind from/ knotsBaromVisibWave heightAir tempDewpointWater temp
2017-Nov-22 20:17N 71°02' E 030°30'310.0
2017-Nov-22 20:01N 71°03' E 030°23'510.2
2017-Nov-22 19:30N 71°06' E 030°10'  
2017-Nov-15 19:29N 52°12' E 003°24'611.4
2017-Nov-15 18:58N 52°09' E 003°32'612.0
2017-Nov-15 18:30N 52°06' E 003°40'612.9
2017-Nov-15 18:01N 52°03' E 003°50'611.0
2017-Nov-15 17:30N 52°01' E 003°58'611.3
2017-Nov-15 17:01N 51°58' E 004°06'4 7.8
2017-Nov-15 16:31N 51°56' E 004°11'1 2.0
2017-Nov-15 15:58N 51°55' E 004°12'0 0.0
2017-Nov-15 15:28N 51°55' E 004°12'0 0.0
2017-Nov-15 14:58N 51°55' E 004°12'0 0.0
2017-Nov-15 14:25N 51°55' E 004°12'0 0.0
2017-Nov-15 13:58N 51°55' E 004°12'0 0.0
2017-Nov-15 13:25N 51°55' E 004°12'0 0.0
2017-Nov-15 12:58N 51°55' E 004°12'0 0.0
2017-Nov-15 12:28N 51°55' E 004°12'0 0.0
2017-Nov-15 11:58N 51°55' E 004°12'0 0.0
2017-Nov-15 11:28N 51°55' E 004°12'0 0.0
2017-Nov-15 10:55N 51°55' E 004°12'0 0.0
2017-Nov-15 10:25N 51°55' E 004°12'0 0.0
2017-Nov-15 09:58N 51°55' E 004°12'0 0.0
2017-Nov-15 09:25N 51°55' E 004°12'0 0.0
2017-Nov-15 08:58N 51°55' E 004°12'0 0.0
2017-Nov-15 08:28N 51°55' E 004°12'0 0.0
2017-Nov-15 07:58N 51°55' E 004°12'0 0.0
2017-Nov-15 07:28N 51°55' E 004°12'0 0.0
2017-Nov-15 06:55N 51°55' E 004°12'0 0.0
2017-Nov-15 06:28N 51°55' E 004°12'0 0.0
2017-Nov-15 05:58N 51°55' E 004°12'0 0.0
2017-Nov-15 05:28N 51°55' E 004°12'0 0.0
2017-Nov-15 04:55N 51°55' E 004°12'0 0.0
2017-Nov-15 04:28N 51°55' E 004°12'0 0.0
2017-Nov-15 03:58N 51°55' E 004°12'0 0.0
2017-Nov-15 03:25N 51°55' E 004°12'0 0.0
2017-Nov-15 02:55N 51°55' E 004°12'0 0.0
2017-Nov-15 02:28N 51°55' E 004°12'0 0.0
2017-Nov-15 01:58N 51°55' E 004°12'0 0.0
2017-Nov-15 01:25N 51°55' E 004°12'0 0.0
2017-Nov-15 00:58N 51°55' E 004°12'0 0.0
2017-Nov-15 00:28N 51°55' E 004°12'0 0.0
2017-Nov-14 23:58N 51°55' E 004°12'0 0.0
2017-Nov-14 23:28N 51°55' E 004°12'0 0.0
2017-Nov-14 22:55N 51°55' E 004°12'0 0.0
2017-Nov-14 22:28N 51°55' E 004°12'0 0.0
2017-Nov-14 21:55N 51°55' E 004°12'0 0.0
2017-Nov-14 21:22N 51°55' E 004°12'0 0.0
2017-Nov-14 20:58N 51°55' E 004°12'0 0.0
2017-Nov-14 20:28N 51°55' E 004°12'0 0.0
2017-Nov-14 19:55N 51°55' E 004°12'0 0.0
2017-Nov-14 19:25N 51°55' E 004°12'0 0.0
2017-Nov-14 18:55N 51°55' E 004°12'0 0.0
2017-Nov-14 18:28N 51°55' E 004°12'0 0.0
2017-Nov-14 17:55N 51°55' E 004°12'0 0.0
2017-Nov-14 17:28N 51°55' E 004°12'0 0.0
2017-Nov-14 17:00N 51°55' E 004°12'0 0.0
2017-Nov-14 16:30N 51°55' E 004°12'1 1.5
2017-Nov-14 16:00N 51°56' E 004°12'2 4.6
2017-Nov-14 15:30N 51°57' E 004°09'3 6.5
2017-Nov-14 15:00N 51°59' E 004°04'510.8
2017-Nov-14 14:30N 52°00' E 003°56'5 9.0
2017-Nov-14 14:00N 52°00' E 003°48'510.1
2017-Nov-14 13:30N 52°03' E 003°41'612.0
2017-Nov-14 13:00N 52°06' E 003°33'  

Dump ship's entire track history